sensor_id;sensor_type;location;lat;lon;timestamp;pressure;altitude;pressure_sealevel;temperature;humidity
80624;BME280;70269;44.768;9.600;2023-08-07T00:00:14;96979.88;;;13.27;64.62
80624;BME280;70269;44.768;9.600;2023-08-07T00:02:39;96983.19;;;13.29;65.27
80624;BME280;70269;44.768;9.600;2023-08-07T00:05:05;96981.13;;;13.19;65.91
80624;BME280;70269;44.768;9.600;2023-08-07T00:07:31;96990.34;;;12.95;66.12
80624;BME280;70269;44.768;9.600;2023-08-07T00:09:57;96985.06;;;12.88;66.49
80624;BME280;70269;44.768;9.600;2023-08-07T00:12:22;96986.13;;;12.87;66.67
80624;BME280;70269;44.768;9.600;2023-08-07T00:14:50;96990.59;;;12.93;66.38
80624;BME280;70269;44.768;9.600;2023-08-07T00:17:15;96990.09;;;12.96;66.88
80624;BME280;70269;44.768;9.600;2023-08-07T00:19:41;96986.72;;;12.89;65.96
80624;BME280;70269;44.768;9.600;2023-08-07T00:22:06;96982.00;;;12.85;65.46
80624;BME280;70269;44.768;9.600;2023-08-07T00:24:32;96989.56;;;12.83;64.39
80624;BME280;70269;44.768;9.600;2023-08-07T00:26:57;96987.41;;;12.85;64.66
80624;BME280;70269;44.768;9.600;2023-08-07T00:29:23;96981.66;;;12.81;64.41
80624;BME280;70269;44.768;9.600;2023-08-07T00:31:50;96983.53;;;12.81;63.61
80624;BME280;70269;44.768;9.600;2023-08-07T00:34:15;96989.28;;;12.84;64.24
80624;BME280;70269;44.768;9.600;2023-08-07T00:36:42;96980.94;;;12.86;65.46
80624;BME280;70269;44.768;9.600;2023-08-07T00:39:07;96978.44;;;12.84;63.91
80624;BME280;70269;44.768;9.600;2023-08-07T00:41:38;96983.75;;;12.79;64.26
80624;BME280;70269;44.768;9.600;2023-08-07T00:44:03;96982.25;;;12.83;64.74
80624;BME280;70269;44.768;9.600;2023-08-07T00:46:29;96980.81;;;12.81;64.34
80624;BME280;70269;44.768;9.600;2023-08-07T00:48:55;96978.13;;;12.81;64.84
80624;BME280;70269;44.768;9.600;2023-08-07T00:51:23;96985.41;;;12.80;63.67
80624;BME280;70269;44.768;9.600;2023-08-07T00:53:49;96978.47;;;12.73;63.56
80624;BME280;70269;44.768;9.600;2023-08-07T00:56:14;96971.66;;;12.70;63.42
80624;BME280;70269;44.768;9.600;2023-08-07T00:58:41;96963.44;;;12.65;63.18
80624;BME280;70269;44.768;9.600;2023-08-07T01:01:07;96961.19;;;12.62;63.90
80624;BME280;70269;44.768;9.600;2023-08-07T01:03:33;96965.78;;;12.62;64.30
80624;BME280;70269;44.768;9.600;2023-08-07T01:05:59;96968.72;;;12.60;62.90
80624;BME280;70269;44.768;9.600;2023-08-07T01:08:25;96968.16;;;12.58;62.56
80624;BME280;70269;44.768;9.600;2023-08-07T01:11:20;96964.97;;;12.49;62.98
80624;BME280;70269;44.768;9.600;2023-08-07T01:16:34;96962.59;;;12.53;62.16
80624;BME280;70269;44.768;9.600;2023-08-07T01:19:01;96961.63;;;12.59;61.96
80624;BME280;70269;44.768;9.600;2023-08-07T01:21:28;96962.13;;;12.56;62.24
80624;BME280;70269;44.768;9.600;2023-08-07T01:23:54;96962.13;;;12.56;62.29
80624;BME280;70269;44.768;9.600;2023-08-07T01:26:20;96964.72;;;12.51;63.15
80624;BME280;70269;44.768;9.600;2023-08-07T01:28:58;96969.66;;;12.42;62.21
80624;BME280;70269;44.768;9.600;2023-08-07T01:31:29;96969.56;;;12.26;63.54
80624;BME280;70269;44.768;9.600;2023-08-07T01:33:59;96967.09;;;12.24;62.13
80624;BME280;70269;44.768;9.600;2023-08-07T01:36:28;96966.38;;;12.29;61.49
80624;BME280;70269;44.768;9.600;2023-08-07T01:38:56;96971.34;;;12.32;60.36
80624;BME280;70269;44.768;9.600;2023-08-07T01:41:24;96980.72;;;12.41;61.91
80624;BME280;70269;44.768;9.600;2023-08-07T01:43:49;96987.19;;;12.05;63.21
80624;BME280;70269;44.768;9.600;2023-08-07T01:46:16;96988.03;;;12.05;62.63
80624;BME280;70269;44.768;9.600;2023-08-07T01:48:41;97002.50;;;12.11;61.55
80624;BME280;70269;44.768;9.600;2023-08-07T01:51:07;96992.41;;;12.18;60.26
80624;BME280;70269;44.768;9.600;2023-08-07T01:53:33;96991.34;;;12.31;60.21
80624;BME280;70269;44.768;9.600;2023-08-07T01:55:58;96983.69;;;12.28;59.53
80624;BME280;70269;44.768;9.600;2023-08-07T01:58:24;96985.00;;;12.25;60.34
80624;BME280;70269;44.768;9.600;2023-08-07T02:00:50;96984.38;;;12.23;60.90
80624;BME280;70269;44.768;9.600;2023-08-07T02:03:15;96990.06;;;12.22;61.71
80624;BME280;70269;44.768;9.600;2023-08-07T02:05:41;96991.06;;;11.97;62.60
80624;BME280;70269;44.768;9.600;2023-08-07T02:08:06;96986.72;;;11.85;63.71
80624;BME280;70269;44.768;9.600;2023-08-07T02:10:32;96980.91;;;11.81;63.41
80624;BME280;70269;44.768;9.600;2023-08-07T02:12:58;96987.38;;;11.80;63.05
80624;BME280;70269;44.768;9.600;2023-08-07T02:15:25;96989.25;;;11.80;62.74
80624;BME280;70269;44.768;9.600;2023-08-07T02:17:51;96989.53;;;11.78;63.08
80624;BME280;70269;44.768;9.600;2023-08-07T02:20:17;96979.97;;;11.75;62.24
80624;BME280;70269;44.768;9.600;2023-08-07T02:22:43;96984.19;;;11.71;62.38
80624;BME280;70269;44.768;9.600;2023-08-07T02:25:09;96987.09;;;11.70;62.96
80624;BME280;70269;44.768;9.600;2023-08-07T02:27:37;96984.56;;;11.75;62.25
80624;BME280;70269;44.768;9.600;2023-08-07T02:30:05;96997.09;;;11.69;61.86
80624;BME280;70269;44.768;9.600;2023-08-07T02:32:31;96988.91;;;11.76;60.88
80624;BME280;70269;44.768;9.600;2023-08-07T02:34:57;96992.56;;;11.82;60.79
80624;BME280;70269;44.768;9.600;2023-08-07T02:37:23;96985.72;;;11.79;61.42
80624;BME280;70269;44.768;9.600;2023-08-07T02:39:48;96989.97;;;11.75;60.95
80624;BME280;70269;44.768;9.600;2023-08-07T02:42:14;96990.41;;;11.72;60.96
80624;BME280;70269;44.768;9.600;2023-08-07T02:44:39;96989.81;;;11.70;61.89
80624;BME280;70269;44.768;9.600;2023-08-07T02:47:06;96986.06;;;11.71;60.68
80624;BME280;70269;44.768;9.600;2023-08-07T02:49:31;96990.72;;;11.64;61.17
80624;BME280;70269;44.768;9.600;2023-08-07T02:51:57;97001.78;;;11.62;61.84
80624;BME280;70269;44.768;9.600;2023-08-07T02:54:23;97004.13;;;11.59;61.49
80624;BME280;70269;44.768;9.600;2023-08-07T02:56:49;97001.44;;;11.59;60.19
80624;BME280;70269;44.768;9.600;2023-08-07T02:59:15;97001.16;;;11.60;60.85
80624;BME280;70269;44.768;9.600;2023-08-07T03:01:43;97011.19;;;11.60;59.70
80624;BME280;70269;44.768;9.600;2023-08-07T03:04:08;97006.75;;;11.65;60.19
80624;BME280;70269;44.768;9.600;2023-08-07T03:06:34;97015.16;;;11.75;58.65
80624;BME280;70269;44.768;9.600;2023-08-07T03:09:00;97008.59;;;11.95;58.04
80624;BME280;70269;44.768;9.600;2023-08-07T03:11:25;97012.59;;;11.92;59.08
80624;BME280;70269;44.768;9.600;2023-08-07T03:13:51;97015.78;;;11.89;58.72
80624;BME280;70269;44.768;9.600;2023-08-07T03:16:16;97016.31;;;11.80;59.65
80624;BME280;70269;44.768;9.600;2023-08-07T03:18:42;97019.94;;;11.73;58.60
80624;BME280;70269;44.768;9.600;2023-08-07T03:21:08;97026.72;;;11.64;59.50
80624;BME280;70269;44.768;9.600;2023-08-07T03:23:33;97020.94;;;11.61;60.39
80624;BME280;70269;44.768;9.600;2023-08-07T03:26:08;97023.63;;;11.61;59.50
80624;BME280;70269;44.768;9.600;2023-08-07T03:28:36;97026.22;;;11.56;58.57
80624;BME280;70269;44.768;9.600;2023-08-07T03:31:02;97026.94;;;11.63;58.84
80624;BME280;70269;44.768;9.600;2023-08-07T03:33:30;97024.75;;;11.71;58.55
80624;BME280;70269;44.768;9.600;2023-08-07T03:35:56;97027.84;;;11.75;57.93
80624;BME280;70269;44.768;9.600;2023-08-07T03:38:22;97022.16;;;11.65;59.56
80624;BME280;70269;44.768;9.600;2023-08-07T03:40:52;97024.81;;;11.53;58.68
80624;BME280;70269;44.768;9.600;2023-08-07T03:43:18;97036.53;;;11.47;59.38
80624;BME280;70269;44.768;9.600;2023-08-07T03:45:44;97043.53;;;11.36;59.98
80624;BME280;70269;44.768;9.600;2023-08-07T03:48:10;97032.59;;;11.31;59.74
80624;BME280;70269;44.768;9.600;2023-08-07T03:50:35;97047.63;;;11.27;60.45
80624;BME280;70269;44.768;9.600;2023-08-07T03:53:04;97042.97;;;11.16;61.01
80624;BME280;70269;44.768;9.600;2023-08-07T03:55:33;97048.81;;;11.13;60.92
80624;BME280;70269;44.768;9.600;2023-08-07T03:57:59;97047.63;;;11.09;60.89
80624;BME280;70269;44.768;9.600;2023-08-07T04:00:24;97053.47;;;11.06;60.48
80624;BME280;70269;44.768;9.600;2023-08-07T04:02:50;97051.88;;;10.99;61.51
80624;BME280;70269;44.768;9.600;2023-08-07T04:05:16;97058.94;;;11.00;60.97
80624;BME280;70269;44.768;9.600;2023-08-07T04:07:41;97063.69;;;11.04;61.58
80624;BME280;70269;44.768;9.600;2023-08-07T04:10:07;97070.09;;;11.10;60.95
80624;BME280;70269;44.768;9.600;2023-08-07T04:12:33;97070.31;;;11.08;61.10
80624;BME280;70269;44.768;9.600;2023-08-07T04:14:59;97073.22;;;11.07;60.65
80624;BME280;70269;44.768;9.600;2023-08-07T04:17:24;97068.50;;;11.02;60.11
80624;BME280;70269;44.768;9.600;2023-08-07T04:19:50;97065.19;;;11.00;60.83
80624;BME280;70269;44.768;9.600;2023-08-07T04:22:15;97078.25;;;11.03;60.54
80624;BME280;70269;44.768;9.600;2023-08-07T04:24:41;97077.28;;;11.16;59.97
80624;BME280;70269;44.768;9.600;2023-08-07T04:27:06;97080.22;;;11.14;59.82
80624;BME280;70269;44.768;9.600;2023-08-07T04:29:33;97077.03;;;11.17;59.46
80624;BME280;70269;44.768;9.600;2023-08-07T04:31:59;97074.25;;;11.24;58.88
80624;BME280;70269;44.768;9.600;2023-08-07T04:34:24;97084.63;;;11.27;59.02
80624;BME280;70269;44.768;9.600;2023-08-07T04:36:50;97088.25;;;11.21;59.11
80624;BME280;70269;44.768;9.600;2023-08-07T04:39:20;97082.09;;;11.14;59.35
80624;BME280;70269;44.768;9.600;2023-08-07T04:41:45;97081.66;;;11.17;60.68
80624;BME280;70269;44.768;9.600;2023-08-07T04:44:11;97085.41;;;11.16;59.79
80624;BME280;70269;44.768;9.600;2023-08-07T04:46:36;97082.44;;;11.17;60.77
80624;BME280;70269;44.768;9.600;2023-08-07T04:49:02;97086.06;;;11.11;60.70
80624;BME280;70269;44.768;9.600;2023-08-07T04:51:28;97085.25;;;11.29;60.29
80624;BME280;70269;44.768;9.600;2023-08-07T04:53:54;97088.38;;;11.92;58.87
80624;BME280;70269;44.768;9.600;2023-08-07T04:56:22;97085.69;;;12.92;55.29
80624;BME280;70269;44.768;9.600;2023-08-07T04:58:47;97101.84;;;13.73;54.24
80624;BME280;70269;44.768;9.600;2023-08-07T05:01:13;97084.06;;;14.39;51.33
80624;BME280;70269;44.768;9.600;2023-08-07T05:03:38;97086.13;;;14.66;50.06
80624;BME280;70269;44.768;9.600;2023-08-07T05:06:04;97085.75;;;14.95;49.04
80624;BME280;70269;44.768;9.600;2023-08-07T05:08:31;97087.66;;;15.33;48.59
80624;BME280;70269;44.768;9.600;2023-08-07T05:10:56;97089.88;;;15.53;48.00
80624;BME280;70269;44.768;9.600;2023-08-07T05:13:22;97090.81;;;15.64;47.75
80624;BME280;70269;44.768;9.600;2023-08-07T05:15:47;97101.41;;;15.87;47.66
80624;BME280;70269;44.768;9.600;2023-08-07T05:18:14;97103.41;;;16.18;47.60
80624;BME280;70269;44.768;9.600;2023-08-07T05:20:39;97102.66;;;16.55;45.54
80624;BME280;70269;44.768;9.600;2023-08-07T05:23:05;97099.09;;;16.81;45.66
80624;BME280;70269;44.768;9.600;2023-08-07T05:25:31;97104.72;;;17.07;44.07
80624;BME280;70269;44.768;9.600;2023-08-07T05:27:56;97095.66;;;16.96;44.56
80624;BME280;70269;44.768;9.600;2023-08-07T05:30:22;97098.81;;;17.20;43.89
80624;BME280;70269;44.768;9.600;2023-08-07T05:32:47;97100.91;;;17.08;43.55
80624;BME280;70269;44.768;9.600;2023-08-07T05:35:13;97098.38;;;17.38;43.58
80624;BME280;70269;44.768;9.600;2023-08-07T05:37:39;97097.44;;;17.64;44.08
80624;BME280;70269;44.768;9.600;2023-08-07T05:40:05;97098.44;;;17.53;43.19
80624;BME280;70269;44.768;9.600;2023-08-07T05:42:31;97100.03;;;17.39;42.92
80624;BME280;70269;44.768;9.600;2023-08-07T05:44:58;97105.47;;;17.91;42.40
80624;BME280;70269;44.768;9.600;2023-08-07T05:47:24;97107.44;;;18.21;40.61
80624;BME280;70269;44.768;9.600;2023-08-07T05:49:49;97106.41;;;18.52;40.35
80624;BME280;70269;44.768;9.600;2023-08-07T05:52:15;97112.19;;;18.71;40.44
80624;BME280;70269;44.768;9.600;2023-08-07T05:54:40;97112.22;;;18.86;40.12
80624;BME280;70269;44.768;9.600;2023-08-07T05:57:06;97110.84;;;18.84;40.10
80624;BME280;70269;44.768;9.600;2023-08-07T05:59:31;97108.38;;;18.87;39.90
80624;BME280;70269;44.768;9.600;2023-08-07T06:01:59;97111.13;;;18.72;40.35
80624;BME280;70269;44.768;9.600;2023-08-07T06:04:25;97111.66;;;19.10;40.07
80624;BME280;70269;44.768;9.600;2023-08-07T06:06:51;97115.47;;;19.24;40.52
80624;BME280;70269;44.768;9.600;2023-08-07T06:09:16;97111.81;;;19.64;39.76
80624;BME280;70269;44.768;9.600;2023-08-07T06:11:42;97113.13;;;19.82;39.78
80624;BME280;70269;44.768;9.600;2023-08-07T06:14:08;97103.47;;;18.99;39.96
80624;BME280;70269;44.768;9.600;2023-08-07T06:16:34;97110.56;;;18.80;40.39
80624;BME280;70269;44.768;9.600;2023-08-07T06:18:59;97107.50;;;18.36;41.63
80624;BME280;70269;44.768;9.600;2023-08-07T06:21:25;97095.72;;;18.31;41.51
80624;BME280;70269;44.768;9.600;2023-08-07T06:23:51;97095.25;;;18.74;41.10
80624;BME280;70269;44.768;9.600;2023-08-07T06:26:16;97091.63;;;19.29;41.12
80624;BME280;70269;44.768;9.600;2023-08-07T06:28:42;97101.22;;;19.22;41.08
80624;BME280;70269;44.768;9.600;2023-08-07T06:31:09;97094.13;;;19.11;41.38
80624;BME280;70269;44.768;9.600;2023-08-07T06:33:36;97104.81;;;18.92;42.06
80624;BME280;70269;44.768;9.600;2023-08-07T06:36:03;97103.13;;;19.21;41.69
80624;BME280;70269;44.768;9.600;2023-08-07T06:38:29;97103.09;;;19.42;41.90
80624;BME280;70269;44.768;9.600;2023-08-07T06:40:55;97110.50;;;19.46;40.73
80624;BME280;70269;44.768;9.600;2023-08-07T06:43:20;97111.13;;;20.02;39.50
80624;BME280;70269;44.768;9.600;2023-08-07T06:45:49;97103.00;;;20.41;39.15
80624;BME280;70269;44.768;9.600;2023-08-07T06:48:14;97100.84;;;20.28;38.35
80624;BME280;70269;44.768;9.600;2023-08-07T06:50:40;97106.72;;;20.06;39.02
80624;BME280;70269;44.768;9.600;2023-08-07T06:53:06;97110.44;;;20.26;40.20
80624;BME280;70269;44.768;9.600;2023-08-07T06:55:31;97114.06;;;20.65;38.78
80624;BME280;70269;44.768;9.600;2023-08-07T06:57:58;97116.19;;;20.78;38.87
80624;BME280;70269;44.768;9.600;2023-08-07T07:00:24;97112.84;;;20.81;37.39
80624;BME280;70269;44.768;9.600;2023-08-07T07:02:49;97107.59;;;21.19;36.24
80624;BME280;70269;44.768;9.600;2023-08-07T07:05:15;97090.44;;;21.32;36.91
80624;BME280;70269;44.768;9.600;2023-08-07T07:07:40;97096.97;;;21.89;36.58
80624;BME280;70269;44.768;9.600;2023-08-07T07:10:06;97106.13;;;22.27;32.76
80624;BME280;70269;44.768;9.600;2023-08-07T07:12:32;97100.81;;;22.30;34.23
80624;BME280;70269;44.768;9.600;2023-08-07T07:14:57;97094.22;;;22.31;32.61
80624;BME280;70269;44.768;9.600;2023-08-07T07:17:23;97105.06;;;22.60;32.83
80624;BME280;70269;44.768;9.600;2023-08-07T07:19:48;97094.38;;;22.21;27.20
80624;BME280;70269;44.768;9.600;2023-08-07T07:22:14;97100.53;;;22.50;28.52
80624;BME280;70269;44.768;9.600;2023-08-07T07:24:40;97088.78;;;22.45;24.55
80624;BME280;70269;44.768;9.600;2023-08-07T07:27:06;97098.69;;;22.27;27.48
80624;BME280;70269;44.768;9.600;2023-08-07T07:29:31;97098.03;;;22.73;24.90
80624;BME280;70269;44.768;9.600;2023-08-07T07:31:57;97104.31;;;23.24;22.45
80624;BME280;70269;44.768;9.600;2023-08-07T07:34:22;97107.91;;;23.25;22.59
80624;BME280;70269;44.768;9.600;2023-08-07T07:36:49;97096.16;;;22.87;21.39
80624;BME280;70269;44.768;9.600;2023-08-07T07:39:16;97089.09;;;23.27;23.59
80624;BME280;70269;44.768;9.600;2023-08-07T07:41:42;97106.16;;;23.29;22.07
80624;BME280;70269;44.768;9.600;2023-08-07T07:44:07;97108.78;;;23.07;20.81
80624;BME280;70269;44.768;9.600;2023-08-07T07:46:33;97102.94;;;22.76;21.50
80624;BME280;70269;44.768;9.600;2023-08-07T07:48:59;97100.19;;;22.76;21.32
80624;BME280;70269;44.768;9.600;2023-08-07T07:51:24;97105.78;;;23.35;22.37
80624;BME280;70269;44.768;9.600;2023-08-07T07:53:50;97111.78;;;23.70;23.25
80624;BME280;70269;44.768;9.600;2023-08-07T07:56:16;97115.13;;;23.53;22.58
80624;BME280;70269;44.768;9.600;2023-08-07T07:58:41;97119.03;;;23.33;20.87
80624;BME280;70269;44.768;9.600;2023-08-07T08:01:07;97130.72;;;23.58;21.75
80624;BME280;70269;44.768;9.600;2023-08-07T08:03:33;97124.91;;;23.13;19.42
80624;BME280;70269;44.768;9.600;2023-08-07T08:05:59;97122.00;;;23.05;20.92
80624;BME280;70269;44.768;9.600;2023-08-07T08:08:25;97130.47;;;22.94;21.15
80624;BME280;70269;44.768;9.600;2023-08-07T08:10:51;97130.06;;;23.01;21.53
80624;BME280;70269;44.768;9.600;2023-08-07T08:13:17;97129.66;;;23.26;21.07
80624;BME280;70269;44.768;9.600;2023-08-07T08:15:43;97141.34;;;23.18;21.02
80624;BME280;70269;44.768;9.600;2023-08-07T08:18:10;97135.56;;;23.33;20.87
80624;BME280;70269;44.768;9.600;2023-08-07T08:20:36;97148.06;;;23.45;20.92
80624;BME280;70269;44.768;9.600;2023-08-07T08:23:02;97140.09;;;23.43;19.24
80624;BME280;70269;44.768;9.600;2023-08-07T08:25:28;97151.69;;;23.40;20.75
80624;BME280;70269;44.768;9.600;2023-08-07T08:27:53;97149.66;;;23.32;20.34
80624;BME280;70269;44.768;9.600;2023-08-07T08:30:20;97145.06;;;23.73;21.77
80624;BME280;70269;44.768;9.600;2023-08-07T08:32:45;97158.34;;;23.71;20.18
80624;BME280;70269;44.768;9.600;2023-08-07T08:35:11;97156.47;;;23.53;20.23
80624;BME280;70269;44.768;9.600;2023-08-07T08:37:37;97159.47;;;23.38;20.29
80624;BME280;70269;44.768;9.600;2023-08-07T08:40:02;97161.13;;;23.39;21.61
80624;BME280;70269;44.768;9.600;2023-08-07T08:42:28;97159.38;;;23.89;20.04
80624;BME280;70269;44.768;9.600;2023-08-07T08:44:55;97169.22;;;24.23;20.53
80624;BME280;70269;44.768;9.600;2023-08-07T08:47:22;97179.03;;;24.29;21.14
80624;BME280;70269;44.768;9.600;2023-08-07T08:50:04;97166.75;;;24.21;20.26
80624;BME280;70269;44.768;9.600;2023-08-07T08:52:32;97169.59;;;23.75;19.50
80624;BME280;70269;44.768;9.600;2023-08-07T08:54:58;97184.50;;;23.74;18.81
80624;BME280;70269;44.768;9.600;2023-08-07T08:57:28;97169.13;;;23.54;19.02
80624;BME280;70269;44.768;9.600;2023-08-07T08:59:55;97176.91;;;23.66;20.35
80624;BME280;70269;44.768;9.600;2023-08-07T09:02:22;97186.41;;;23.41;19.36
80624;BME280;70269;44.768;9.600;2023-08-07T09:04:47;97185.50;;;23.46;19.92
80624;BME280;70269;44.768;9.600;2023-08-07T09:07:15;97178.44;;;23.39;20.18
80624;BME280;70269;44.768;9.600;2023-08-07T09:09:42;97191.22;;;23.68;19.81
80624;BME280;70269;44.768;9.600;2023-08-07T09:12:16;97181.72;;;23.42;19.51
80624;BME280;70269;44.768;9.600;2023-08-07T09:14:49;97193.03;;;23.59;20.33
80624;BME280;70269;44.768;9.600;2023-08-07T09:17:19;97185.09;;;23.57;20.18
80624;BME280;70269;44.768;9.600;2023-08-07T09:19:46;97168.97;;;23.92;20.26
80624;BME280;70269;44.768;9.600;2023-08-07T09:22:12;97166.94;;;23.97;19.60
80624;BME280;70269;44.768;9.600;2023-08-07T09:24:38;97185.56;;;23.59;19.10
80624;BME280;70269;44.768;9.600;2023-08-07T09:27:07;97179.06;;;23.69;20.05
80624;BME280;70269;44.768;9.600;2023-08-07T09:29:33;97178.75;;;23.57;20.35
80624;BME280;70269;44.768;9.600;2023-08-07T09:32:09;97178.69;;;23.75;19.80
80624;BME280;70269;44.768;9.600;2023-08-07T09:34:39;97172.25;;;23.80;19.01
80624;BME280;70269;44.768;9.600;2023-08-07T09:37:04;97173.63;;;23.64;19.23
80624;BME280;70269;44.768;9.600;2023-08-07T09:39:30;97175.47;;;23.55;18.87
80624;BME280;70269;44.768;9.600;2023-08-07T09:41:55;97181.94;;;23.77;20.31
80624;BME280;70269;44.768;9.600;2023-08-07T09:44:21;97161.59;;;23.60;19.22
80624;BME280;70269;44.768;9.600;2023-08-07T09:46:47;97167.63;;;23.89;20.05
80624;BME280;70269;44.768;9.600;2023-08-07T09:49:12;97159.59;;;24.06;19.57
80624;BME280;70269;44.768;9.600;2023-08-07T09:51:44;97172.50;;;24.25;18.82
80624;BME280;70269;44.768;9.600;2023-08-07T09:54:10;97168.03;;;23.83;19.35
80624;BME280;70269;44.768;9.600;2023-08-07T09:56:39;97166.22;;;23.78;18.53
80624;BME280;70269;44.768;9.600;2023-08-07T09:59:05;97152.44;;;24.05;18.37
80624;BME280;70269;44.768;9.600;2023-08-07T10:01:32;97151.41;;;24.56;19.50
80624;BME280;70269;44.768;9.600;2023-08-07T10:03:57;97156.91;;;24.15;18.46
80624;BME280;70269;44.768;9.600;2023-08-07T10:06:24;97175.03;;;24.35;16.57
80624;BME280;70269;44.768;9.600;2023-08-07T10:08:50;97152.84;;;24.40;17.16
80624;BME280;70269;44.768;9.600;2023-08-07T10:11:16;97152.13;;;24.48;17.08
80624;BME280;70269;44.768;9.600;2023-08-07T10:13:43;97154.69;;;24.17;16.80
80624;BME280;70269;44.768;9.600;2023-08-07T10:16:09;97144.38;;;24.23;18.60
80624;BME280;70269;44.768;9.600;2023-08-07T10:18:36;97150.09;;;24.12;18.97
80624;BME280;70269;44.768;9.600;2023-08-07T10:21:04;97157.75;;;24.15;20.08
80624;BME280;70269;44.768;9.600;2023-08-07T10:23:33;97151.81;;;24.08;19.97
80624;BME280;70269;44.768;9.600;2023-08-07T10:26:00;97161.25;;;24.21;21.24
80624;BME280;70269;44.768;9.600;2023-08-07T10:28:27;97160.91;;;23.95;21.26
80624;BME280;70269;44.768;9.600;2023-08-07T10:30:54;97168.28;;;23.86;20.63
80624;BME280;70269;44.768;9.600;2023-08-07T10:33:20;97174.59;;;23.87;20.88
80624;BME280;70269;44.768;9.600;2023-08-07T10:35:47;97172.16;;;23.85;20.78
80624;BME280;70269;44.768;9.600;2023-08-07T10:38:19;97174.31;;;23.88;21.19
80624;BME280;70269;44.768;9.600;2023-08-07T10:41:10;97165.03;;;23.52;20.84
80624;BME280;70269;44.768;9.600;2023-08-07T10:43:42;97159.78;;;23.69;21.62
80624;BME280;70269;44.768;9.600;2023-08-07T10:46:11;97156.81;;;23.79;21.21
80624;BME280;70269;44.768;9.600;2023-08-07T10:48:46;97169.56;;;23.61;20.46
80624;BME280;70269;44.768;9.600;2023-08-07T10:51:17;97163.63;;;23.54;21.36
80624;BME280;70269;44.768;9.600;2023-08-07T10:53:44;97169.06;;;23.73;21.39
80624;BME280;70269;44.768;9.600;2023-08-07T10:56:28;97170.00;;;23.82;19.92
80624;BME280;70269;44.768;9.600;2023-08-07T10:58:56;97160.81;;;24.00;20.14
80624;BME280;70269;44.768;9.600;2023-08-07T11:01:27;97157.13;;;23.77;21.32
80624;BME280;70269;44.768;9.600;2023-08-07T11:04:04;97162.25;;;23.98;20.83
80624;BME280;70269;44.768;9.600;2023-08-07T11:06:32;97166.44;;;23.82;17.62
80624;BME280;70269;44.768;9.600;2023-08-07T11:08:59;97166.34;;;23.87;18.07
80624;BME280;70269;44.768;9.600;2023-08-07T11:11:26;97156.44;;;24.13;19.70
80624;BME280;70269;44.768;9.600;2023-08-07T11:13:52;97159.38;;;23.89;19.12
80624;BME280;70269;44.768;9.600;2023-08-07T11:16:19;97166.06;;;24.29;21.46
80624;BME280;70269;44.768;9.600;2023-08-07T11:18:49;97163.88;;;24.12;18.37
80624;BME280;70269;44.768;9.600;2023-08-07T11:21:14;97144.75;;;24.02;18.85
80624;BME280;70269;44.768;9.600;2023-08-07T11:23:40;97162.44;;;24.01;19.00
80624;BME280;70269;44.768;9.600;2023-08-07T11:26:07;97147.22;;;24.04;18.58
80624;BME280;70269;44.768;9.600;2023-08-07T11:28:33;97162.88;;;24.22;19.02
80624;BME280;70269;44.768;9.600;2023-08-07T11:30:59;97157.34;;;24.08;17.87
80624;BME280;70269;44.768;9.600;2023-08-07T11:33:26;97160.91;;;23.95;18.90
80624;BME280;70269;44.768;9.600;2023-08-07T11:35:51;97151.63;;;24.05;18.66
80624;BME280;70269;44.768;9.600;2023-08-07T11:41:05;97147.84;;;23.87;18.99
80624;BME280;70269;44.768;9.600;2023-08-07T11:43:32;97159.09;;;24.04;18.92
80624;BME280;70269;44.768;9.600;2023-08-07T11:46:08;97169.94;;;24.28;19.53
80624;BME280;70269;44.768;9.600;2023-08-07T11:48:35;97172.56;;;23.92;18.85
80624;BME280;70269;44.768;9.600;2023-08-07T11:51:02;97164.28;;;23.92;18.08
80624;BME280;70269;44.768;9.600;2023-08-07T11:53:30;97163.69;;;23.82;18.72
80624;BME280;70269;44.768;9.600;2023-08-07T11:56:01;97171.44;;;23.93;20.35
80624;BME280;70269;44.768;9.600;2023-08-07T11:58:32;97163.44;;;23.78;18.92
80624;BME280;70269;44.768;9.600;2023-08-07T12:00:58;97173.28;;;24.11;21.68
80624;BME280;70269;44.768;9.600;2023-08-07T12:03:25;97181.75;;;23.88;19.12
80624;BME280;70269;44.768;9.600;2023-08-07T12:05:53;97175.00;;;23.80;18.53
80624;BME280;70269;44.768;9.600;2023-08-07T12:08:19;97180.44;;;23.99;20.40
80624;BME280;70269;44.768;9.600;2023-08-07T12:10:55;97167.97;;;23.88;18.68
80624;BME280;70269;44.768;9.600;2023-08-07T12:13:24;97173.69;;;24.05;19.54
80624;BME280;70269;44.768;9.600;2023-08-07T12:15:52;97156.19;;;23.96;23.39
80624;BME280;70269;44.768;9.600;2023-08-07T12:18:19;97165.88;;;23.66;18.39
80624;BME280;70269;44.768;9.600;2023-08-07T12:20:46;97166.63;;;23.85;20.30
80624;BME280;70269;44.768;9.600;2023-08-07T12:23:15;97165.69;;;23.62;18.38
80624;BME280;70269;44.768;9.600;2023-08-07T12:25:42;97169.56;;;23.61;19.04
80624;BME280;70269;44.768;9.600;2023-08-07T12:28:07;97162.59;;;23.64;20.38
80624;BME280;70269;44.768;9.600;2023-08-07T12:30:37;97169.69;;;23.70;20.27
80624;BME280;70269;44.768;9.600;2023-08-07T12:33:04;97156.41;;;23.72;18.45
80624;BME280;70269;44.768;9.600;2023-08-07T12:35:34;97162.06;;;23.94;21.50
80624;BME280;70269;44.768;9.600;2023-08-07T12:38:00;97152.94;;;23.80;18.37
80624;BME280;70269;44.768;9.600;2023-08-07T12:40:27;97159.38;;;23.89;18.00
80624;BME280;70269;44.768;9.600;2023-08-07T12:42:52;97167.25;;;23.96;17.63
80624;BME280;70269;44.768;9.600;2023-08-07T12:45:18;97158.84;;;23.73;17.11
80624;BME280;70269;44.768;9.600;2023-08-07T12:47:45;97148.66;;;23.74;18.31
80624;BME280;70269;44.768;9.600;2023-08-07T12:50:11;97152.72;;;23.76;18.07
80624;BME280;70269;44.768;9.600;2023-08-07T12:52:36;97154.38;;;23.91;19.30
80624;BME280;70269;44.768;9.600;2023-08-07T12:55:02;97138.34;;;23.93;18.11
80624;BME280;70269;44.768;9.600;2023-08-07T12:57:27;97150.59;;;24.14;17.79
80624;BME280;70269;44.768;9.600;2023-08-07T12:59:53;97152.34;;;24.10;17.36
80624;BME280;70269;44.768;9.600;2023-08-07T13:02:18;97149.97;;;24.04;16.75